»·PEaware :: N122SQ KGWS-KAPA

N122SQ :: KGWS-KAPA

FLIGHT INFORMATION

Flight Status: Arrived
Operator: Privately registered:
United States
More flights under this callsign
Pilot: Gabor H. (24209)
Aircraft: CIRRUS SR-22 TURBO
(S22T)
More flights by this aircraft type
Origin: KGWS Glenwood Springs Mun
United States
Destination: KAPA Centennial
United States
More flights between these airports :: More routes between these airports
Route:
File this flight plan on PilotEdge
Remarks:
Altitude:
(Current/Filed)
15,500ft
Speed:
(Current/Filed)
160kts
Departed: 07-Oct-23 06:59 AM
Arrived: 07-Oct-23 07:39 AM
Distance/Time
Traveled:
114nm/0:39
Distance/Time
To Go:
Arrived

Flight Plot

Page will automatically refresh every two minutes.

Flight plan parsing failed; only flown route is shown


Map Options




Map Legend


Flown Route
Filed Route
Departure Airport
Arrival Airport
Navaid (VOR, NDB)
Fix

Horizontal Profiles

Position Reports

Time Latitude Longitude Heading Altitude Ground
Speed
07-Oct-23 06:53 39.508077 -107.309604 243 5919ft 0kts
07-Oct-23 06:54 39.508077 -107.309604 243 5919ft 0kts
07-Oct-23 06:55 39.508077 -107.309604 243 5919ft 0kts
07-Oct-23 06:56 39.508203 -107.309812 325 5919ft 7kts
07-Oct-23 06:57 39.510026 -107.311649 233 5919ft 5kts
07-Oct-23 06:58 39.491300 -107.300963 156 6255ft 118kts
07-Oct-23 06:59 39.471477 -107.264180 93 7165ft 142kts
07-Oct-23 07:00 39.473232 -107.211513 80 8063ft 150kts
07-Oct-23 07:01 39.483650 -107.158313 75 9249ft 149kts
07-Oct-23 07:02 39.497990 -107.107649 67 10360ft 154kts
07-Oct-23 07:03 39.506926 -107.052104 87 11356ft 162kts
07-Oct-23 07:04 39.507308 -106.992611 88 12322ft 168kts
07-Oct-23 07:05 39.507450 -106.932205 87 13293ft 170kts
07-Oct-23 07:06 39.507570 -106.870490 86 14244ft 173kts
07-Oct-23 07:07 39.507654 -106.807905 85 15181ft 175kts
07-Oct-23 07:08 39.507736 -106.742570 86 15629ft 197kts
07-Oct-23 07:09 39.507724 -106.669287 86 15533ft 202kts
07-Oct-23 07:10 39.507692 -106.597685 85 15535ft 195kts
07-Oct-23 07:11 39.507649 -106.528238 86 15544ft 192kts
07-Oct-23 07:12 39.507531 -106.458913 85 15548ft 194kts
07-Oct-23 07:13 39.507383 -106.388641 85 15557ft 197kts
07-Oct-23 07:14 39.507195 -106.317419 86 15563ft 198kts
07-Oct-23 07:15 39.506974 -106.246738 86 15620ft 192kts
07-Oct-23 07:16 39.506673 -106.177500 86 15617ft 193kts
07-Oct-23 07:17 39.506373 -106.107790 86 15621ft 192kts
07-Oct-23 07:18 39.505994 -106.038509 86 15595ft 194kts
07-Oct-23 07:19 39.505583 -105.968107 86 15539ft 196kts
07-Oct-23 07:20 39.505149 -105.897296 85 15484ft 196kts
07-Oct-23 07:21 39.504626 -105.827008 86 15425ft 194kts
07-Oct-23 07:22 39.504116 -105.758015 85 15496ft 192kts
07-Oct-23 07:23 39.503565 -105.687962 86 15383ft 201kts
07-Oct-23 07:24 39.502978 -105.614378 88 14918ft 203kts
07-Oct-23 07:25 39.502190 -105.539821 86 14432ft 210kts
07-Oct-23 07:26 39.501431 -105.463851 87 13900ft 213kts
07-Oct-23 07:27 39.500590 -105.385906 87 12996ft 218kts
07-Oct-23 07:28 39.499687 -105.307361 88 12029ft 218kts
07-Oct-23 07:29 39.498763 -105.230006 89 11072ft 213kts
07-Oct-23 07:30 39.497798 -105.153755 89 9998ft 210kts
07-Oct-23 07:31 39.497657 -105.079646 87 8900ft 202kts
07-Oct-23 07:32 39.499148 -105.008225 87 7846ft 196kts
07-Oct-23 07:33 39.500557 -104.939057 87 7072ft 185kts
07-Oct-23 07:34 39.529489 -104.892051 38 6997ft 169kts
07-Oct-23 07:35 39.569783 -104.866492 358 6904ft 168kts
07-Oct-23 07:36 39.600101 -104.853142 131 6114ft 118kts
07-Oct-23 07:37 39.572648 -104.850964 180 5887ft 41kts
07-Oct-23 07:38 39.570013 -104.849425 350 5887ft 13kts
07-Oct-23 07:39 39.573871 -104.848441 93 5887ft 14kts
07-Oct-23 07:40 39.573385 -104.842926 225 5887ft 4kts
07-Oct-23 07:41 39.573334 -104.843104 264 5887ft 0kts
07-Oct-23 07:43 39.573334 -104.843104 264 5887ft 0kts
07-Oct-23 07:44 39.573334 -104.843104 264 5887ft 0kts
07-Oct-23 07:45 39.573334 -104.843104 264 5887ft 0kts
07-Oct-23 07:46 39.573334 -104.843104 264 5887ft 0kts
07-Oct-23 07:47 39.573334 -104.843104 264 5887ft 0kts

Navigation Log

Ident Type
Flight plan parsing failed, navigation log unavailable